sensor_id;sensor_type;location;lat;lon;timestamp;pressure;altitude;pressure_sealevel;temperature
50496;BMP280;38806;51.554;5.704;2022-07-29T00:01:30;102342.44;;;18.05
50496;BMP280;38806;51.554;5.704;2022-07-29T00:03:30;102362.00;;;18.03
50496;BMP280;38806;51.554;5.704;2022-07-29T00:05:30;102362.47;;;17.96
50496;BMP280;38806;51.554;5.704;2022-07-29T00:07:31;102246.66;;;17.84
50496;BMP280;38806;51.554;5.704;2022-07-29T00:09:31;102210.28;;;17.59
50496;BMP280;38806;51.554;5.704;2022-07-29T00:11:32;102136.84;;;17.25
50496;BMP280;38806;51.554;5.704;2022-07-29T00:13:32;102027.31;;;17.19
50496;BMP280;38806;51.554;5.704;2022-07-29T00:15:32;101942.06;;;17.00
50496;BMP280;38806;51.554;5.704;2022-07-29T00:17:33;101784.75;;;16.69
50496;BMP280;38806;51.554;5.704;2022-07-29T00:19:34;101836.13;;;16.56
50496;BMP280;38806;51.554;5.704;2022-07-29T00:21:34;101681.88;;;16.43
50496;BMP280;38806;51.554;5.704;2022-07-29T00:23:34;101252.50;;;16.22
50496;BMP280;38806;51.554;5.704;2022-07-29T00:25:34;101123.38;;;16.08
50496;BMP280;38806;51.554;5.704;2022-07-29T00:27:35;101057.19;;;15.92
50496;BMP280;38806;51.554;5.704;2022-07-29T00:29:36;101053.66;;;15.78
50496;BMP280;38806;51.554;5.704;2022-07-29T00:31:36;100997.72;;;15.94
50496;BMP280;38806;51.554;5.704;2022-07-29T00:33:36;101014.56;;;15.87
50496;BMP280;38806;51.554;5.704;2022-07-29T00:35:37;101077.13;;;15.70
50496;BMP280;38806;51.554;5.704;2022-07-29T00:37:46;101008.31;;;15.49
50496;BMP280;38806;51.554;5.704;2022-07-29T00:39:46;100955.13;;;15.46
50496;BMP280;38806;51.554;5.704;2022-07-29T00:41:47;100904.38;;;15.41
50496;BMP280;38806;51.554;5.704;2022-07-29T00:43:47;100935.97;;;15.38
50496;BMP280;38806;51.554;5.704;2022-07-29T00:45:47;100805.88;;;15.38
50496;BMP280;38806;51.554;5.704;2022-07-29T00:47:48;100806.19;;;15.35
50496;BMP280;38806;51.554;5.704;2022-07-29T00:49:48;100775.38;;;15.32
50496;BMP280;38806;51.554;5.704;2022-07-29T00:51:49;100844.00;;;15.22
50496;BMP280;38806;51.554;5.704;2022-07-29T00:53:49;100769.75;;;15.30
50496;BMP280;38806;51.554;5.704;2022-07-29T00:55:51;100838.25;;;15.50
50496;BMP280;38806;51.554;5.704;2022-07-29T00:57:53;100844.31;;;15.37
50496;BMP280;38806;51.554;5.704;2022-07-29T00:59:54;100874.75;;;15.24
50496;BMP280;38806;51.554;5.704;2022-07-29T01:01:55;100884.53;;;15.08
50496;BMP280;38806;51.554;5.704;2022-07-29T01:03:56;100778.88;;;15.08
50496;BMP280;38806;51.554;5.704;2022-07-29T01:05:56;100743.75;;;15.40
50496;BMP280;38806;51.554;5.704;2022-07-29T01:07:57;100800.22;;;15.36
50496;BMP280;38806;51.554;5.704;2022-07-29T01:09:58;100845.63;;;15.30
50496;BMP280;38806;51.554;5.704;2022-07-29T01:11:59;100734.16;;;15.21
50496;BMP280;38806;51.554;5.704;2022-07-29T01:14:01;100650.22;;;15.15
50496;BMP280;38806;51.554;5.704;2022-07-29T01:16:13;100826.22;;;15.02
50496;BMP280;38806;51.554;5.704;2022-07-29T01:18:22;100851.81;;;15.06
50496;BMP280;38806;51.554;5.704;2022-07-29T01:20:29;100838.34;;;14.95
50496;BMP280;38806;51.554;5.704;2022-07-29T01:25:03;100539.19;;;14.64
50496;BMP280;38806;51.554;5.704;2022-07-29T01:27:35;100408.13;;;14.54
50496;BMP280;38806;51.554;5.704;2022-07-29T01:29:41;100367.94;;;14.45
50496;BMP280;38806;51.554;5.704;2022-07-29T01:32:01;100299.47;;;14.50
50496;BMP280;38806;51.554;5.704;2022-07-29T01:34:05;100249.44;;;14.57
50496;BMP280;38806;51.554;5.704;2022-07-29T01:36:11;100183.75;;;14.69
50496;BMP280;38806;51.554;5.704;2022-07-29T01:38:20;100183.13;;;14.63
50496;BMP280;38806;51.554;5.704;2022-07-29T01:42:30;100118.34;;;14.79
50496;BMP280;38806;51.554;5.704;2022-07-29T01:44:39;100083.25;;;14.86
50496;BMP280;38806;51.554;5.704;2022-07-29T01:46:49;100048.88;;;14.94
50496;BMP280;38806;51.554;5.704;2022-07-29T01:48:55;100087.13;;;14.78
50496;BMP280;38806;51.554;5.704;2022-07-29T01:51:02;100094.22;;;14.67
50496;BMP280;38806;51.554;5.704;2022-07-29T01:53:07;100054.03;;;14.71
50496;BMP280;38806;51.554;5.704;2022-07-29T01:55:14;100084.75;;;14.61
50496;BMP280;38806;51.554;5.704;2022-07-29T01:57:16;100108.31;;;14.53
50496;BMP280;38806;51.554;5.704;2022-07-29T01:59:20;100109.84;;;14.48
50496;BMP280;38806;51.554;5.704;2022-07-29T02:01:21;100148.38;;;14.41
50496;BMP280;38806;51.554;5.704;2022-07-29T02:03:23;100133.78;;;14.44
50496;BMP280;38806;51.554;5.704;2022-07-29T02:05:26;100144.22;;;14.40
50496;BMP280;38806;51.554;5.704;2022-07-29T02:07:29;100130.91;;;14.42
50496;BMP280;38806;51.554;5.704;2022-07-29T02:09:33;100147.88;;;14.29
50496;BMP280;38806;51.554;5.704;2022-07-29T02:11:35;100104.16;;;14.38
50496;BMP280;38806;51.554;5.704;2022-07-29T02:13:36;100096.53;;;14.37
50496;BMP280;38806;51.554;5.704;2022-07-29T02:15:37;100048.03;;;14.52
50496;BMP280;38806;51.554;5.704;2022-07-29T02:17:43;100051.06;;;14.49
50496;BMP280;38806;51.554;5.704;2022-07-29T02:19:44;100066.16;;;14.44
50496;BMP280;38806;51.554;5.704;2022-07-29T02:21:46;100076.78;;;14.42
50496;BMP280;38806;51.554;5.704;2022-07-29T02:23:48;100129.94;;;14.26
50496;BMP280;38806;51.554;5.704;2022-07-29T02:25:52;100133.88;;;14.25
50496;BMP280;38806;51.554;5.704;2022-07-29T02:27:53;100120.28;;;14.31
50496;BMP280;38806;51.554;5.704;2022-07-29T02:29:55;100155.13;;;14.21
50496;BMP280;38806;51.554;5.704;2022-07-29T02:31:58;100196.88;;;14.07
50496;BMP280;38806;51.554;5.704;2022-07-29T02:34:01;100192.03;;;14.05
50496;BMP280;38806;51.554;5.704;2022-07-29T02:36:03;100177.16;;;14.12
50496;BMP280;38806;51.554;5.704;2022-07-29T02:38:04;100163.63;;;14.12
50496;BMP280;38806;51.554;5.704;2022-07-29T02:40:23;100163.31;;;14.16
50496;BMP280;38806;51.554;5.704;2022-07-29T02:42:24;100152.72;;;14.18
50496;BMP280;38806;51.554;5.704;2022-07-29T02:44:26;100166.34;;;14.12
50496;BMP280;38806;51.554;5.704;2022-07-29T02:46:31;100181.41;;;14.07
50496;BMP280;38806;51.554;5.704;2022-07-29T02:48:36;100203.34;;;14.04
50496;BMP280;38806;51.554;5.704;2022-07-29T02:50:44;100243.56;;;13.94
50496;BMP280;38806;51.554;5.704;2022-07-29T02:53:05;100213.84;;;14.07
50496;BMP280;38806;51.554;5.704;2022-07-29T02:57:38;100229.66;;;14.03
50496;BMP280;38806;51.554;5.704;2022-07-29T02:59:41;100252.03;;;14.04
50496;BMP280;38806;51.554;5.704;2022-07-29T03:01:43;100275.63;;;14.03
50496;BMP280;38806;51.554;5.704;2022-07-29T03:03:46;100329.84;;;13.92
50496;BMP280;38806;51.554;5.704;2022-07-29T03:05:46;100325.84;;;13.99
50496;BMP280;38806;51.554;5.704;2022-07-29T03:07:57;100343.50;;;14.00
50496;BMP280;38806;51.554;5.704;2022-07-29T03:09:58;100357.22;;;14.02
50496;BMP280;38806;51.554;5.704;2022-07-29T03:12:00;100385.03;;;14.02
50496;BMP280;38806;51.554;5.704;2022-07-29T03:14:01;100415.97;;;14.01
50496;BMP280;38806;51.554;5.704;2022-07-29T03:16:02;100455.38;;;13.97
50496;BMP280;38806;51.554;5.704;2022-07-29T03:18:03;100477.53;;;13.95
50496;BMP280;38806;51.554;5.704;2022-07-29T03:20:04;100518.13;;;13.90
50496;BMP280;38806;51.554;5.704;2022-07-29T03:22:04;100475.22;;;14.05
50496;BMP280;38806;51.554;5.704;2022-07-29T03:24:05;100502.81;;;13.98
50496;BMP280;38806;51.554;5.704;2022-07-29T03:26:05;100530.38;;;13.96
50496;BMP280;38806;51.554;5.704;2022-07-29T03:28:06;100534.13;;;13.88
50496;BMP280;38806;51.554;5.704;2022-07-29T03:30:07;100543.50;;;13.87
50496;BMP280;38806;51.554;5.704;2022-07-29T03:32:08;100522.03;;;13.94
50496;BMP280;38806;51.554;5.704;2022-07-29T03:34:08;100507.72;;;13.99
50496;BMP280;38806;51.554;5.704;2022-07-29T03:36:08;100518.59;;;13.94
50496;BMP280;38806;51.554;5.704;2022-07-29T03:38:09;100481.13;;;14.03
50496;BMP280;38806;51.554;5.704;2022-07-29T03:40:11;100507.00;;;13.99
50496;BMP280;38806;51.554;5.704;2022-07-29T03:42:15;100498.66;;;13.97
50496;BMP280;38806;51.554;5.704;2022-07-29T03:44:17;100448.53;;;14.15
50496;BMP280;38806;51.554;5.704;2022-07-29T03:46:20;100455.47;;;14.10
50496;BMP280;38806;51.554;5.704;2022-07-29T03:48:23;100475.22;;;14.05
50496;BMP280;38806;51.554;5.704;2022-07-29T03:50:25;100476.97;;;14.02
50496;BMP280;38806;51.554;5.704;2022-07-29T03:52:26;100492.94;;;14.00
50496;BMP280;38806;51.554;5.704;2022-07-29T03:54:26;100495.22;;;13.96
50496;BMP280;38806;51.554;5.704;2022-07-29T03:56:27;100497.41;;;13.98
50496;BMP280;38806;51.554;5.704;2022-07-29T03:58:30;100495.94;;;13.97
50496;BMP280;38806;51.554;5.704;2022-07-29T04:00:31;100459.97;;;14.02
50496;BMP280;38806;51.554;5.704;2022-07-29T04:02:32;100464.91;;;14.03
50496;BMP280;38806;51.554;5.704;2022-07-29T04:04:34;100417.78;;;14.18
50496;BMP280;38806;51.554;5.704;2022-07-29T04:06:42;100385.38;;;14.31
50496;BMP280;38806;51.554;5.704;2022-07-29T04:08:43;100385.38;;;14.31
50496;BMP280;38806;51.554;5.704;2022-07-29T04:10:43;100438.06;;;14.24
50496;BMP280;38806;51.554;5.704;2022-07-29T04:12:43;100472.56;;;14.18
50496;BMP280;38806;51.554;5.704;2022-07-29T04:14:43;100494.81;;;14.11
50496;BMP280;38806;51.554;5.704;2022-07-29T04:16:44;100504.38;;;14.12
50496;BMP280;38806;51.554;5.704;2022-07-29T04:18:44;100495.75;;;14.14
50496;BMP280;38806;51.554;5.704;2022-07-29T04:20:44;100484.06;;;14.24
50496;BMP280;38806;51.554;5.704;2022-07-29T04:22:45;100514.69;;;14.14
50496;BMP280;38806;51.554;5.704;2022-07-29T04:24:45;100516.38;;;14.17
50496;BMP280;38806;51.554;5.704;2022-07-29T04:26:46;100531.88;;;14.16
50496;BMP280;38806;51.554;5.704;2022-07-29T04:28:46;100519.53;;;14.21
50496;BMP280;38806;51.554;5.704;2022-07-29T04:30:47;100488.38;;;14.33
50496;BMP280;38806;51.554;5.704;2022-07-29T04:32:47;100505.34;;;14.33
50496;BMP280;38806;51.554;5.704;2022-07-29T04:34:47;100562.31;;;14.22
50496;BMP280;38806;51.554;5.704;2022-07-29T04:36:47;100594.38;;;14.13
50496;BMP280;38806;51.554;5.704;2022-07-29T04:38:48;100610.63;;;14.07
50496;BMP280;38806;51.554;5.704;2022-07-29T04:40:48;100630.34;;;14.02
50496;BMP280;38806;51.554;5.704;2022-07-29T04:42:48;100532.41;;;14.33
50496;BMP280;38806;51.554;5.704;2022-07-29T04:44:48;100542.06;;;14.29
50496;BMP280;38806;51.554;5.704;2022-07-29T04:46:49;100528.56;;;14.29
50496;BMP280;38806;51.554;5.704;2022-07-29T04:48:49;100545.19;;;14.33
50496;BMP280;38806;51.554;5.704;2022-07-29T04:50:49;100565.59;;;14.34
50496;BMP280;38806;51.554;5.704;2022-07-29T04:52:50;100590.97;;;14.31
50496;BMP280;38806;51.554;5.704;2022-07-29T04:54:50;100579.59;;;14.38
50496;BMP280;38806;51.554;5.704;2022-07-29T04:56:50;100578.34;;;14.39
50496;BMP280;38806;51.554;5.704;2022-07-29T04:58:51;100577.09;;;14.40
50496;BMP280;38806;51.554;5.704;2022-07-29T05:00:51;100621.47;;;14.31
50496;BMP280;38806;51.554;5.704;2022-07-29T05:02:51;100633.53;;;14.30
50496;BMP280;38806;51.554;5.704;2022-07-29T05:04:51;100648.78;;;14.28
50496;BMP280;38806;51.554;5.704;2022-07-29T05:06:52;100670.00;;;14.24
50496;BMP280;38806;51.554;5.704;2022-07-29T05:08:52;100678.13;;;14.24
50496;BMP280;38806;51.554;5.704;2022-07-29T05:10:52;100666.22;;;14.32
50496;BMP280;38806;51.554;5.704;2022-07-29T05:12:53;100638.59;;;14.39
50496;BMP280;38806;51.554;5.704;2022-07-29T05:14:53;100635.16;;;14.39
50496;BMP280;38806;51.554;5.704;2022-07-29T05:16:54;100624.56;;;14.41
50496;BMP280;38806;51.554;5.704;2022-07-29T05:18:56;100643.56;;;14.35
50496;BMP280;38806;51.554;5.704;2022-07-29T05:20:57;100622.78;;;14.44
50496;BMP280;38806;51.554;5.704;2022-07-29T05:22:58;100663.75;;;14.34
50496;BMP280;38806;51.554;5.704;2022-07-29T05:24:58;100658.53;;;14.36
50496;BMP280;38806;51.554;5.704;2022-07-29T05:26:59;100673.09;;;14.33
50496;BMP280;38806;51.554;5.704;2022-07-29T05:28:59;100690.06;;;14.34
50496;BMP280;38806;51.554;5.704;2022-07-29T05:30:59;100699.94;;;14.31
50496;BMP280;38806;51.554;5.704;2022-07-29T05:33:00;100678.94;;;14.37
50496;BMP280;38806;51.554;5.704;2022-07-29T05:35:00;100682.41;;;14.38
50496;BMP280;38806;51.554;5.704;2022-07-29T05:37:00;100707.75;;;14.35
50496;BMP280;38806;51.554;5.704;2022-07-29T05:39:01;100731.88;;;14.33
50496;BMP280;38806;51.554;5.704;2022-07-29T05:41:01;100747.13;;;14.36
50496;BMP280;38806;51.554;5.704;2022-07-29T05:43:01;100756.19;;;14.38
50496;BMP280;38806;51.554;5.704;2022-07-29T05:45:02;100740.34;;;14.48
50496;BMP280;38806;51.554;5.704;2022-07-29T05:47:03;100752.09;;;14.56
50496;BMP280;38806;51.554;5.704;2022-07-29T05:49:03;100808.25;;;14.50
50496;BMP280;38806;51.554;5.704;2022-07-29T05:51:03;100827.97;;;14.45
50496;BMP280;38806;51.554;5.704;2022-07-29T05:53:04;100817.13;;;14.45
50496;BMP280;38806;51.554;5.704;2022-07-29T05:55:05;100814.94;;;14.44
50496;BMP280;38806;51.554;5.704;2022-07-29T05:57:06;100802.59;;;14.48
50496;BMP280;38806;51.554;5.704;2022-07-29T05:59:06;100803.28;;;14.54
50496;BMP280;38806;51.554;5.704;2022-07-29T06:01:06;100827.50;;;14.47
50496;BMP280;38806;51.554;5.704;2022-07-29T06:03:06;100834.84;;;14.46
50496;BMP280;38806;51.554;5.704;2022-07-29T06:05:07;100808.25;;;14.50
50496;BMP280;38806;51.554;5.704;2022-07-29T06:07:07;100824.25;;;14.48
50496;BMP280;38806;51.554;5.704;2022-07-29T06:09:08;100813.38;;;14.54
50496;BMP280;38806;51.554;5.704;2022-07-29T06:11:08;100789.94;;;14.62
50496;BMP280;38806;51.554;5.704;2022-07-29T06:13:09;100793.31;;;14.68
50496;BMP280;38806;51.554;5.704;2022-07-29T06:15:09;100809.47;;;14.79
50496;BMP280;38806;51.554;5.704;2022-07-29T06:17:09;100866.63;;;14.75
50496;BMP280;38806;51.554;5.704;2022-07-29T06:19:11;100882.88;;;14.75
50496;BMP280;38806;51.554;5.704;2022-07-29T06:21:11;100851.72;;;14.88
50496;BMP280;38806;51.554;5.704;2022-07-29T06:23:12;100845.31;;;14.91
50496;BMP280;38806;51.554;5.704;2022-07-29T06:25:12;100817.97;;;15.13
50496;BMP280;38806;51.554;5.704;2022-07-29T06:27:12;100922.00;;;15.04
50496;BMP280;38806;51.554;5.704;2022-07-29T06:29:12;100966.63;;;14.98
50496;BMP280;38806;51.554;5.704;2022-07-29T06:31:13;100988.34;;;14.92
50496;BMP280;38806;51.554;5.704;2022-07-29T06:33:17;100968.88;;;14.94
50496;BMP280;38806;51.554;5.704;2022-07-29T06:35:18;100921.03;;;15.02
50496;BMP280;38806;51.554;5.704;2022-07-29T06:37:19;100938.06;;;14.97
50496;BMP280;38806;51.554;5.704;2022-07-29T06:39:19;100913.88;;;15.04
50496;BMP280;38806;51.554;5.704;2022-07-29T06:41:19;100949.81;;;15.05
50496;BMP280;38806;51.554;5.704;2022-07-29T06:43:19;100966.97;;;15.13
50496;BMP280;38806;51.554;5.704;2022-07-29T06:45:20;101017.53;;;15.10
50496;BMP280;38806;51.554;5.704;2022-07-29T06:47:20;101027.38;;;15.08
50496;BMP280;38806;51.554;5.704;2022-07-29T06:49:20;101026.88;;;15.09
50496;BMP280;38806;51.554;5.704;2022-07-29T06:51:21;101044.31;;;15.14
50496;BMP280;38806;51.554;5.704;2022-07-29T06:53:22;101012.47;;;15.26
50496;BMP280;38806;51.554;5.704;2022-07-29T06:55:22;101069.19;;;15.18
50496;BMP280;38806;51.554;5.704;2022-07-29T06:57:23;101054.13;;;15.23
50496;BMP280;38806;51.554;5.704;2022-07-29T06:59:23;101011.16;;;15.32
50496;BMP280;38806;51.554;5.704;2022-07-29T07:01:23;100973.63;;;15.42
50496;BMP280;38806;51.554;5.704;2022-07-29T07:03:24;101026.19;;;15.33
50496;BMP280;38806;51.554;5.704;2022-07-29T07:05:24;101058.81;;;15.22
50496;BMP280;38806;51.554;5.704;2022-07-29T07:07:25;101065.91;;;15.25
50496;BMP280;38806;51.554;5.704;2022-07-29T07:09:25;101040.53;;;15.28
50496;BMP280;38806;51.554;5.704;2022-07-29T07:11:26;101055.34;;;15.22
50496;BMP280;38806;51.554;5.704;2022-07-29T07:13:26;101022.31;;;15.29
50496;BMP280;38806;51.554;5.704;2022-07-29T07:15:28;101051.59;;;15.30
50496;BMP280;38806;51.554;5.704;2022-07-29T07:17:28;101058.38;;;15.42
50496;BMP280;38806;51.554;5.704;2022-07-29T07:19:29;101031.19;;;15.54
50496;BMP280;38806;51.554;5.704;2022-07-29T07:21:29;101022.59;;;15.74
50496;BMP280;38806;51.554;5.704;2022-07-29T07:23:30;101076.94;;;15.87
50496;BMP280;38806;51.554;5.704;2022-07-29T07:25:30;101130.44;;;15.92
50496;BMP280;38806;51.554;5.704;2022-07-29T07:27:31;101222.28;;;15.77
50496;BMP280;38806;51.554;5.704;2022-07-29T07:29:31;101273.19;;;15.60
50496;BMP280;38806;51.554;5.704;2022-07-29T07:31:31;101213.53;;;15.60
50496;BMP280;38806;51.554;5.704;2022-07-29T07:33:31;101209.88;;;15.57
50496;BMP280;38806;51.554;5.704;2022-07-29T07:35:32;101231.09;;;15.53
50496;BMP280;38806;51.554;5.704;2022-07-29T07:37:32;101224.88;;;15.58
50496;BMP280;38806;51.554;5.704;2022-07-29T07:39:33;101234.00;;;15.61
50496;BMP280;38806;51.554;5.704;2022-07-29T07:41:33;101270.88;;;15.75
50496;BMP280;38806;51.554;5.704;2022-07-29T07:43:33;101202.63;;;16.01
50496;BMP280;38806;51.554;5.704;2022-07-29T07:45:34;101023.44;;;16.49
50496;BMP280;38806;51.554;5.704;2022-07-29T07:47:37;101062.38;;;16.71
50496;BMP280;38806;51.554;5.704;2022-07-29T07:49:38;101192.09;;;16.65
50496;BMP280;38806;51.554;5.704;2022-07-29T07:51:38;101247.53;;;16.75
50496;BMP280;38806;51.554;5.704;2022-07-29T07:53:38;101066.69;;;17.30
50496;BMP280;38806;51.554;5.704;2022-07-29T07:55:42;101329.53;;;17.41
50496;BMP280;38806;51.554;5.704;2022-07-29T07:57:43;101251.63;;;17.75
50496;BMP280;38806;51.554;5.704;2022-07-29T07:59:43;101332.50;;;17.93
50496;BMP280;38806;51.554;5.704;2022-07-29T08:01:43;101528.16;;;17.78
50496;BMP280;38806;51.554;5.704;2022-07-29T08:03:44;101517.53;;;17.99
50496;BMP280;38806;51.554;5.704;2022-07-29T08:05:44;101392.19;;;18.05
50496;BMP280;38806;51.554;5.704;2022-07-29T08:07:45;101495.88;;;17.88
50496;BMP280;38806;51.554;5.704;2022-07-29T08:09:46;101526.91;;;17.98
50496;BMP280;38806;51.554;5.704;2022-07-29T08:11:46;101573.81;;;17.85
50496;BMP280;38806;51.554;5.704;2022-07-29T08:13:46;101684.19;;;17.56
50496;BMP280;38806;51.554;5.704;2022-07-29T08:15:47;101629.31;;;17.52
50496;BMP280;38806;51.554;5.704;2022-07-29T08:18:08;101492.78;;;17.78
50496;BMP280;38806;51.554;5.704;2022-07-29T08:20:09;101739.06;;;17.60
50496;BMP280;38806;51.554;5.704;2022-07-29T08:22:09;101617.50;;;17.98
50496;BMP280;38806;51.554;5.704;2022-07-29T08:24:10;101692.66;;;17.77
50496;BMP280;38806;51.554;5.704;2022-07-29T08:26:28;101656.47;;;18.31
50496;BMP280;38806;51.554;5.704;2022-07-29T08:28:29;101766.28;;;18.45
50496;BMP280;38806;51.554;5.704;2022-07-29T08:30:29;101597.06;;;19.31
50496;BMP280;38806;51.554;5.704;2022-07-29T08:32:30;101620.88;;;19.96
50496;BMP280;38806;51.554;5.704;2022-07-29T08:34:31;101974.47;;;20.08
50496;BMP280;38806;51.554;5.704;2022-07-29T08:36:32;101385.81;;;21.44
50496;BMP280;38806;51.554;5.704;2022-07-29T08:38:33;101880.47;;;21.56
50496;BMP280;38806;51.554;5.704;2022-07-29T08:40:33;101884.31;;;21.40
50496;BMP280;38806;51.554;5.704;2022-07-29T08:42:34;101990.59;;;21.62
50496;BMP280;38806;51.554;5.704;2022-07-29T08:44:34;101858.47;;;21.49
50496;BMP280;38806;51.554;5.704;2022-07-29T08:46:37;101712.13;;;22.57
50496;BMP280;38806;51.554;5.704;2022-07-29T08:48:40;101979.50;;;21.81
50496;BMP280;38806;51.554;5.704;2022-07-29T08:50:42;101798.06;;;22.24
50496;BMP280;38806;51.554;5.704;2022-07-29T08:52:43;101707.94;;;23.25
50496;BMP280;38806;51.554;5.704;2022-07-29T08:54:43;101891.50;;;23.21
50496;BMP280;38806;51.554;5.704;2022-07-29T08:56:47;101866.66;;;23.87
50496;BMP280;38806;51.554;5.704;2022-07-29T08:58:49;101489.78;;;24.75
50496;BMP280;38806;51.554;5.704;2022-07-29T09:00:54;101435.56;;;25.75
50496;BMP280;38806;51.554;5.704;2022-07-29T09:02:57;101721.09;;;26.14
50496;BMP280;38806;51.554;5.704;2022-07-29T09:05:00;101751.47;;;25.97
50496;BMP280;38806;51.554;5.704;2022-07-29T09:07:03;102222.91;;;24.05
50496;BMP280;38806;51.554;5.704;2022-07-29T09:09:04;102032.22;;;23.14
50496;BMP280;38806;51.554;5.704;2022-07-29T09:11:05;101618.81;;;25.39
50496;BMP280;38806;51.554;5.704;2022-07-29T09:13:07;101912.03;;;24.34
50496;BMP280;38806;51.554;5.704;2022-07-29T09:15:08;101470.16;;;26.14
50496;BMP280;38806;51.554;5.704;2022-07-29T09:17:08;101466.31;;;27.25
50496;BMP280;38806;51.554;5.704;2022-07-29T09:19:38;101673.38;;;27.73
50496;BMP280;38806;51.554;5.704;2022-07-29T09:21:40;101568.69;;;27.58
50496;BMP280;38806;51.554;5.704;2022-07-29T09:24:09;101669.19;;;26.66
50496;BMP280;38806;51.554;5.704;2022-07-29T09:26:10;101461.44;;;28.30
50496;BMP280;38806;51.554;5.704;2022-07-29T09:28:13;101493.88;;;28.95
50496;BMP280;38806;51.554;5.704;2022-07-29T09:30:14;101542.47;;;29.19
50496;BMP280;38806;51.554;5.704;2022-07-29T09:32:14;101819.91;;;28.12
50496;BMP280;38806;51.554;5.704;2022-07-29T09:34:20;101789.59;;;28.04
50496;BMP280;38806;51.554;5.704;2022-07-29T09:36:21;101467.66;;;29.08
50496;BMP280;38806;51.554;5.704;2022-07-29T09:38:21;101766.28;;;28.88
50496;BMP280;38806;51.554;5.704;2022-07-29T09:40:27;102078.44;;;27.28
50496;BMP280;38806;51.554;5.704;2022-07-29T09:42:29;101796.16;;;28.09
50496;BMP280;38806;51.554;5.704;2022-07-29T09:47:01;101612.44;;;29.08
50496;BMP280;38806;51.554;5.704;2022-07-29T09:49:12;101597.66;;;29.38
50496;BMP280;38806;51.554;5.704;2022-07-29T09:51:19;101543.94;;;29.67
50496;BMP280;38806;51.554;5.704;2022-07-29T09:55:45;101981.25;;;26.17
50496;BMP280;38806;51.554;5.704;2022-07-29T09:57:46;101760.84;;;27.88
50496;BMP280;38806;51.554;5.704;2022-07-29T10:01:58;101483.72;;;30.68
50496;BMP280;38806;51.554;5.704;2022-07-29T10:03:58;101528.34;;;31.11
50496;BMP280;38806;51.554;5.704;2022-07-29T10:06:09;101548.56;;;31.53
50496;BMP280;38806;51.554;5.704;2022-07-29T10:08:11;101511.38;;;31.89
50496;BMP280;38806;51.554;5.704;2022-07-29T10:10:19;101715.88;;;30.25
50496;BMP280;38806;51.554;5.704;2022-07-29T10:12:20;101533.09;;;32.06
50496;BMP280;38806;51.554;5.704;2022-07-29T10:14:20;101686.56;;;32.28
50496;BMP280;38806;51.554;5.704;2022-07-29T10:16:20;101679.00;;;31.35
50496;BMP280;38806;51.554;5.704;2022-07-29T10:18:21;101468.16;;;32.31
50496;BMP280;38806;51.554;5.704;2022-07-29T10:20:22;101606.19;;;32.36
50496;BMP280;38806;51.554;5.704;2022-07-29T10:22:23;101704.28;;;31.94
50496;BMP280;38806;51.554;5.704;2022-07-29T10:24:26;101702.66;;;32.16
50496;BMP280;38806;51.554;5.704;2022-07-29T10:26:28;101827.78;;;31.11
50496;BMP280;38806;51.554;5.704;2022-07-29T10:28:32;101577.34;;;31.87
50496;BMP280;38806;51.554;5.704;2022-07-29T10:30:33;101790.72;;;30.95
50496;BMP280;38806;51.554;5.704;2022-07-29T10:37:22;101709.53;;;31.21
50496;BMP280;38806;51.554;5.704;2022-07-29T10:39:51;101891.56;;;30.16
50496;BMP280;38806;51.554;5.704;2022-07-29T10:42:23;101891.56;;;30.16
50496;BMP280;38806;51.554;5.704;2022-07-29T10:44:25;101620.91;;;32.09
50496;BMP280;38806;51.554;5.704;2022-07-29T10:46:26;101701.06;;;32.40
50496;BMP280;38806;51.554;5.704;2022-07-29T10:48:27;101542.66;;;32.78
50496;BMP280;38806;51.554;5.704;2022-07-29T10:50:27;101458.22;;;33.57
50496;BMP280;38806;51.554;5.704;2022-07-29T10:54:56;101999.00;;;30.93
50496;BMP280;38806;51.554;5.704;2022-07-29T11:01:29;101750.13;;;31.52
50496;BMP280;38806;51.554;5.704;2022-07-29T11:03:48;101750.59;;;32.01
50496;BMP280;38806;51.554;5.704;2022-07-29T11:05:55;101643.25;;;32.25
50496;BMP280;38806;51.554;5.704;2022-07-29T11:10:24;101570.50;;;32.62
50496;BMP280;38806;51.554;5.704;2022-07-29T11:12:53;101783.97;;;31.48
50496;BMP280;38806;51.554;5.704;2022-07-29T11:17:02;101806.03;;;31.07
50496;BMP280;38806;51.554;5.704;2022-07-29T11:21:35;101495.34;;;32.33
50496;BMP280;38806;51.554;5.704;2022-07-29T11:23:35;101566.06;;;33.69
50496;BMP280;38806;51.554;5.704;2022-07-29T11:25:38;101762.66;;;32.19
50496;BMP280;38806;51.554;5.704;2022-07-29T11:27:38;101458.47;;;34.38
50496;BMP280;38806;51.554;5.704;2022-07-29T11:29:50;101443.91;;;34.59
50496;BMP280;38806;51.554;5.704;2022-07-29T11:31:52;101598.88;;;34.39
50496;BMP280;38806;51.554;5.704;2022-07-29T11:33:56;101846.66;;;32.02
50496;BMP280;38806;51.554;5.704;2022-07-29T11:36:12;102066.69;;;29.99
50496;BMP280;38806;51.554;5.704;2022-07-29T11:40:22;101896.16;;;31.04
50496;BMP280;38806;51.554;5.704;2022-07-29T11:46:59;101984.41;;;29.82
50496;BMP280;38806;51.554;5.704;2022-07-29T11:48:59;101735.06;;;31.57
50496;BMP280;38806;51.554;5.704;2022-07-29T11:50:59;101875.09;;;31.24
50496;BMP280;38806;51.554;5.704;2022-07-29T11:53:02;101904.91;;;30.99
50496;BMP280;38806;51.554;5.704;2022-07-29T11:55:04;101737.31;;;32.13
50496;BMP280;38806;51.554;5.704;2022-07-29T11:57:09;101731.91;;;32.74
50496;BMP280;38806;51.554;5.704;2022-07-29T11:59:10;101649.19;;;33.39
50496;BMP280;38806;51.554;5.704;2022-07-29T12:01:13;101733.88;;;32.85
50496;BMP280;38806;51.554;5.704;2022-07-29T12:03:24;101595.91;;;33.64
50496;BMP280;38806;51.554;5.704;2022-07-29T12:05:33;101914.13;;;31.38
50496;BMP280;38806;51.554;5.704;2022-07-29T12:07:34;101631.31;;;33.12
50496;BMP280;38806;51.554;5.704;2022-07-29T12:09:35;101894.88;;;31.93
50496;BMP280;38806;51.554;5.704;2022-07-29T12:11:36;102030.13;;;30.68
50496;BMP280;38806;51.554;5.704;2022-07-29T12:13:39;101845.31;;;31.64
50496;BMP280;38806;51.554;5.704;2022-07-29T12:15:40;101575.22;;;33.53